Time;durP1;ratioP1;P1;durP2;ratioP2;P2;SDS_P1;SDS_P2;PMS_P1;PMS_P2;Temp;Humidity;BMP_temperature;BMP_pressure;BME280_temperature;BME280_humidity;BME280_pressure;Samples;Min_cycle;Max_cycle;Signal;HPM_P1;HPM_P2
2023/07/10 00:01:40;;;;;;;32.35;13.45;;;18.50;94.50;;;;;;5054588;28;20191;-90
2023/07/10 00:04:19;;;;;;;24.65;13.48;;;18.50;94.50;;;;;;5054330;28;20196;-91
2023/07/10 00:06:45;;;;;;;31.45;13.63;;;18.60;94.50;;;;;;5059443;28;20168;-91
2023/07/10 00:09:11;;;;;;;25.13;13.50;;;18.60;94.60;;;;;;5056845;28;20199;-91
2023/07/10 00:11:37;;;;;;;29.73;14.23;;;18.60;94.50;;;;;;5055712;28;20168;-90
2023/07/10 00:14:06;;;;;;;27.23;13.95;;;18.60;94.60;;;;;;5056065;28;20214;-90
2023/07/10 00:16:32;;;;;;;22.75;14.00;;;18.70;94.60;;;;;;5055286;28;20247;-90
2023/07/10 00:18:58;;;;;;;32.80;14.27;;;18.70;94.60;;;;;;5053805;28;20206;-90
2023/07/10 00:21:23;;;;;;;28.65;14.40;;;18.70;94.60;;;;;;5052955;28;20180;-90
2023/07/10 00:23:49;;;;;;;32.20;14.98;;;18.70;94.60;;;;;;5053639;28;20628;-90
2023/07/10 00:26:24;;;;;;;32.00;14.40;;;18.70;94.60;;;;;;5053887;28;20171;-90
2023/07/10 00:28:52;;;;;;;27.92;13.68;;;18.80;94.60;;;;;;5053341;28;20228;-90
2023/07/10 00:31:18;;;;;;;27.13;14.05;;;18.80;94.60;;;;;;5055277;28;20168;-91
2023/07/10 00:33:47;;;;;;;30.65;14.35;;;18.80;94.50;;;;;;5054343;28;20207;-90
2023/07/10 00:36:32;;;;;;;25.15;14.02;;;18.80;94.60;;;;;;5053869;28;20169;-90
2023/07/10 00:39:20;;;;;;;30.83;13.60;;;18.80;94.50;;;;;;5054198;28;20171;-91
2023/07/10 00:41:49;;;;;;;27.17;13.32;;;18.80;94.50;;;;;;5055578;28;20148;-90
2023/07/10 00:44:16;;;;;;;31.15;13.43;;;18.80;94.50;;;;;;5054286;28;20199;-91
2023/07/10 00:46:47;;;;;;;26.45;13.88;;;18.80;94.50;;;;;;5053573;28;20168;-90
2023/07/10 00:49:19;;;;;;;31.75;14.68;;;18.80;94.50;;;;;;5053344;28;20194;-91
2023/07/10 00:51:54;;;;;;;24.45;14.30;;;18.80;94.50;;;;;;5057756;28;20721;-91
2023/07/10 00:54:28;;;;;;;26.95;13.65;;;18.90;94.50;;;;;;5058539;28;20278;-91
2023/07/10 00:56:55;;;;;;;29.60;14.30;;;18.90;94.50;;;;;;5057916;28;20157;-90
2023/07/10 00:59:26;;;;;;;33.92;13.75;;;18.90;94.50;;;;;;5057775;28;20176;-88
2023/07/10 01:02:16;;;;;;;35.03;15.05;;;18.90;94.50;;;;;;5057401;28;20647;-89
2023/07/10 01:04:45;;;;;;;29.40;13.80;;;18.90;94.60;;;;;;5056946;28;20602;-89
2023/07/10 01:07:12;;;;;;;35.03;15.00;;;18.90;94.50;;;;;;5056103;28;20176;-89
2023/07/10 01:09:41;;;;;;;31.63;14.95;;;18.90;94.50;;;;;;5056981;28;20196;-90
2023/07/10 01:12:07;;;;;;;34.63;14.23;;;19.00;94.60;;;;;;5055937;28;20222;-89
2023/07/10 01:14:34;;;;;;;25.10;13.43;;;18.90;94.60;;;;;;5055710;28;20200;-89
2023/07/10 01:17:04;;;;;;;29.25;13.65;;;18.90;94.50;;;;;;5055883;28;20172;-89
2023/07/10 01:19:30;;;;;;;30.30;13.98;;;18.80;94.40;;;;;;5057145;28;20543;-90
2023/07/10 01:21:56;;;;;;;28.05;12.73;;;18.80;94.50;;;;;;5055785;28;20279;-90
2023/07/10 01:24:21;;;;;;;26.25;13.35;;;18.90;94.50;;;;;;5055698;28;20227;-89
2023/07/10 01:26:47;;;;;;;28.02;13.50;;;19.00;94.50;;;;;;5056963;28;20172;-89
2023/07/10 01:29:31;;;;;;;22.63;12.30;;;18.90;94.40;;;;;;5056647;28;20265;-89
2023/07/10 01:31:58;;;;;;;25.92;12.25;;;18.90;94.40;;;;;;5055490;28;20168;-90
2023/07/10 01:34:33;;;;;;;18.95;11.18;;;18.80;94.30;;;;;;5055446;28;20620;-90
2023/07/10 01:36:59;;;;;;;25.08;11.82;;;18.80;94.30;;;;;;5055269;28;20707;-90
2023/07/10 01:39:35;;;;;;;30.38;13.07;;;18.80;94.30;;;;;;5056854;28;20263;-90
2023/07/10 01:42:01;;;;;;;28.27;12.73;;;19.00;94.30;;;;;;5055302;28;20577;-89
2023/07/10 01:44:32;;;;;;;29.13;11.90;;;18.90;94.20;;;;;;5056287;28;20314;-89
2023/07/10 01:47:00;;;;;;;22.65;12.65;;;18.90;94.20;;;;;;5055260;28;20179;-90
2023/07/10 01:49:33;;;;;;;27.98;12.07;;;18.90;94.20;;;;;;5056616;28;20659;-89
2023/07/10 01:52:02;;;;;;;24.33;11.55;;;18.90;94.20;;;;;;5056288;28;20167;-89
2023/07/10 01:54:27;;;;;;;19.00;10.77;;;18.90;94.20;;;;;;5056244;28;20208;-89
2023/07/10 01:56:53;;;;;;;20.63;11.27;;;18.90;94.20;;;;;;5055039;28;20595;-89
2023/07/10 01:59:19;;;;;;;20.15;11.57;;;18.80;94.10;;;;;;5056241;28;20256;-89
2023/07/10 02:01:44;;;;;;;25.75;11.93;;;18.80;94.10;;;;;;5054523;28;20204;-89
2023/07/10 02:04:10;;;;;;;29.17;12.60;;;18.80;94.20;;;;;;5054766;28;20234;-89
2023/07/10 02:06:37;;;;;;;29.90;10.93;;;18.70;94.30;;;;;;5055534;28;20180;-89
2023/07/10 02:09:04;;;;;;;31.55;12.48;;;18.70;94.40;;;;;;5054622;28;20195;-89
2023/07/10 02:11:29;;;;;;;31.38;11.43;;;18.60;94.50;;;;;;5054688;28;20176;-89
2023/07/10 02:13:55;;;;;;;30.92;13.02;;;18.60;94.60;;;;;;5055804;28;20557;-89
2023/07/10 02:16:20;;;;;;;18.85;11.60;;;18.60;94.60;;;;;;5056175;28;20224;-89
2023/07/10 02:18:46;;;;;;;27.00;13.52;;;18.70;94.70;;;;;;5055833;28;20208;-89
2023/07/10 02:21:11;;;;;;;23.60;13.98;;;18.70;94.70;;;;;;5054468;28;20199;-89
2023/07/10 02:23:38;;;;;;;34.47;15.75;;;18.70;94.70;;;;;;5055666;28;20184;-89
2023/07/10 02:26:04;;;;;;;34.47;15.73;;;18.80;94.70;;;;;;5054357;28;20176;-89
2023/07/10 02:28:30;;;;;;;27.52;17.33;;;18.70;94.70;;;;;;5054221;28;20200;-89
2023/07/10 02:30:56;;;;;;;26.83;17.85;;;18.80;94.80;;;;;;5054367;28;20674;-89
2023/07/10 02:33:22;;;;;;;27.67;18.20;;;18.80;94.80;;;;;;5054351;28;20679;-89
2023/07/10 02:35:48;;;;;;;29.05;16.80;;;18.90;94.90;;;;;;5055567;28;20164;-90
2023/07/10 02:38:14;;;;;;;29.85;16.02;;;18.90;94.90;;;;;;5054204;28;20223;-89
2023/07/10 02:40:42;;;;;;;33.03;16.27;;;19.00;95.00;;;;;;5054092;28;20230;-89
2023/07/10 02:43:07;;;;;;;32.92;19.50;;;19.00;94.90;;;;;;5055579;28;20210;-90
2023/07/10 02:45:34;;;;;;;38.42;21.35;;;18.90;94.90;;;;;;5055258;28;20241;-89
2023/07/10 02:48:00;;;;;;;35.60;20.05;;;18.90;94.90;;;;;;5054032;28;20180;-89
2023/07/10 02:50:26;;;;;;;30.52;19.95;;;18.90;94.90;;;;;;5054090;28;20701;-89
2023/07/10 02:52:51;;;;;;;37.45;21.60;;;18.90;94.90;;;;;;5054219;28;20255;-89
2023/07/10 02:55:17;;;;;;;29.67;22.30;;;18.80;94.80;;;;;;5055803;28;20182;-89
2023/07/10 02:57:43;;;;;;;38.03;25.45;;;18.80;94.80;;;;;;5053852;28;20179;-89
2023/07/10 03:00:08;;;;;;;31.70;24.70;;;18.80;94.90;;;;;;5053968;28;20172;-89
2023/07/10 03:02:34;;;;;;;33.58;23.48;;;18.80;94.80;;;;;;5055214;28;20210;-89
2023/07/10 03:04:59;;;;;;;31.42;24.90;;;18.70;94.90;;;;;;5054881;28;20194;-89
2023/07/10 03:07:25;;;;;;;33.50;23.50;;;18.70;94.90;;;;;;5055000;28;20177;-90
2023/07/10 03:09:51;;;;;;;31.48;21.17;;;18.80;94.90;;;;;;5054962;28;20192;-89
2023/07/10 03:12:16;;;;;;;31.10;21.52;;;18.80;94.90;;;;;;5052943;28;20168;-89
2023/07/10 03:14:42;;;;;;;27.95;19.70;;;18.80;94.90;;;;;;5054933;28;20188;-89
2023/07/10 03:17:07;;;;;;;31.50;19.20;;;18.90;94.80;;;;;;5055083;28;20247;-89
2023/07/10 03:19:34;;;;;;;31.30;20.48;;;18.90;94.80;;;;;;5054734;28;20651;-89
2023/07/10 03:21:59;;;;;;;28.40;19.40;;;18.90;94.70;;;;;;5054792;28;20183;-89
2023/07/10 03:24:25;;;;;;;32.10;19.15;;;18.90;94.70;;;;;;5053560;28;20196;-88
2023/07/10 03:26:51;;;;;;;31.00;20.17;;;18.90;94.60;;;;;;5054778;28;20172;-89
2023/07/10 03:29:17;;;;;;;27.63;20.75;;;18.90;94.60;;;;;;5054434;28;20694;-89
2023/07/10 03:31:43;;;;;;;35.03;21.88;;;18.90;94.60;;;;;;5053176;28;20267;-90
2023/07/10 03:34:11;;;;;;;30.80;20.67;;;18.90;94.50;;;;;;5053251;28;20192;-90
2023/07/10 03:36:37;;;;;;;33.58;22.65;;;18.90;94.30;;;;;;5053401;28;20255;-90
2023/07/10 03:39:03;;;;;;;33.70;21.67;;;18.90;94.20;;;;;;5054363;28;20615;-90
2023/07/10 03:41:28;;;;;;;33.00;20.40;;;18.80;94.20;;;;;;5054272;28;20663;-90
2023/07/10 03:43:54;;;;;;;31.90;20.70;;;18.80;94.10;;;;;;5054299;28;20620;-89
2023/07/10 03:46:21;;;;;;;32.38;22.77;;;18.70;94.10;;;;;;5053339;28;20180;-90
2023/07/10 03:48:47;;;;;;;38.70;21.70;;;18.80;94.00;;;;;;5054121;28;20295;-90
2023/07/10 03:51:14;;;;;;;37.88;23.52;;;18.80;94.00;;;;;;5054284;28;20214;-90
2023/07/10 03:53:40;;;;;;;34.90;23.00;;;18.90;94.00;;;;;;5054036;28;20227;-89
2023/07/10 03:56:06;;;;;;;43.40;23.25;;;18.90;93.90;;;;;;5052853;28;20195;-89
2023/07/10 03:58:34;;;;;;;42.47;23.45;;;18.80;93.80;;;;;;5053874;28;20218;-89
2023/07/10 04:01:01;;;;;;;44.22;24.05;;;18.70;93.80;;;;;;5054194;28;20295;-90
2023/07/10 04:03:29;;;;;;;40.22;25.35;;;18.70;93.80;;;;;;5052487;28;20202;-90
2023/07/10 04:05:58;;;;;;;48.78;24.95;;;18.70;93.90;;;;;;5052862;28;20677;-90
2023/07/10 04:08:27;;;;;;;54.50;27.67;;;18.70;93.90;;;;;;5053919;28;20287;-90
2023/07/10 04:10:55;;;;;;;51.70;26.33;;;18.70;94.00;;;;;;5054115;28;20164;-90
2023/07/10 04:13:21;;;;;;;48.75;26.30;;;18.70;94.00;;;;;;5054147;28;20195;-90
2023/07/10 04:16:04;;;;;;;46.92;27.20;;;18.70;94.10;;;;;;5052411;28;20176;-90
2023/07/10 04:18:32;;;;;;;47.78;28.02;;;18.70;94.10;;;;;;5053405;28;20178;-90
2023/07/10 04:20:59;;;;;;;61.70;28.60;;;18.70;94.20;;;;;;5052469;28;20714;-90
2023/07/10 04:23:25;;;;;;;58.50;30.48;;;18.70;94.30;;;;;;5052224;28;20215;-90
2023/07/10 04:25:51;;;;;;;62.28;30.42;;;18.70;94.30;;;;;;5052222;28;20686;-90
2023/07/10 04:28:16;;;;;;;53.05;30.23;;;18.70;94.40;;;;;;5052980;28;20203;-89
2023/07/10 04:30:43;;;;;;;64.32;31.15;;;18.70;94.50;;;;;;5052319;28;20226;-90
2023/07/10 04:33:11;;;;;;;63.20;30.08;;;18.70;94.50;;;;;;5053367;28;20184;-90
2023/07/10 04:35:37;;;;;;;61.05;31.73;;;18.70;94.50;;;;;;5053380;28;20164;-90
2023/07/10 04:38:03;;;;;;;63.35;30.52;;;18.70;94.60;;;;;;5053329;28;20168;-90
2023/07/10 04:40:28;;;;;;;59.38;30.73;;;18.70;94.60;;;;;;5053400;28;20222;-89
2023/07/10 04:42:54;;;;;;;52.17;32.25;;;18.60;94.70;;;;;;5053246;28;20222;-90
2023/07/10 04:45:20;;;;;;;56.50;32.15;;;18.60;94.70;;;;;;5051992;28;20249;-90
2023/07/10 04:47:45;;;;;;;49.25;30.75;;;18.70;94.90;;;;;;5053326;28;20206;-90
2023/07/10 04:50:11;;;;;;;60.78;32.17;;;18.70;95.00;;;;;;5053082;28;20261;-90
2023/07/10 04:52:37;;;;;;;62.30;31.35;;;18.80;95.00;;;;;;5053041;28;20686;-89
2023/07/10 04:55:03;;;;;;;54.45;30.52;;;18.90;95.00;;;;;;5053313;28;20210;-90
2023/07/10 04:57:28;;;;;;;55.35;30.63;;;18.90;95.00;;;;;;5053474;28;20172;-90
2023/07/10 04:59:54;;;;;;;70.03;31.95;;;19.00;95.00;;;;;;5053201;28;20225;-90
2023/07/10 05:02:19;;;;;;;59.10;32.70;;;19.00;95.00;;;;;;5053443;28;20176;-90
2023/07/10 05:04:45;;;;;;;56.42;29.00;;;19.10;95.10;;;;;;5052232;28;20198;-90
2023/07/10 05:07:11;;;;;;;49.00;29.42;;;19.10;95.10;;;;;;5053083;28;20721;-90
2023/07/10 05:09:36;;;;;;;39.85;28.80;;;19.20;95.10;;;;;;5052874;28;20192;-89
2023/07/10 05:12:02;;;;;;;44.47;27.70;;;19.10;94.90;;;;;;5053155;28;20174;-89
2023/07/10 05:14:28;;;;;;;50.72;31.77;;;19.00;94.90;;;;;;5052025;28;20279;-91
2023/07/10 05:16:53;;;;;;;44.47;31.52;;;19.10;95.00;;;;;;5052314;28;20617;-90
2023/07/10 05:19:19;;;;;;;55.35;31.65;;;19.10;95.10;;;;;;5051792;28;20195;-89
2023/07/10 05:21:44;;;;;;;56.70;32.90;;;19.20;95.20;;;;;;5053129;28;20178;-90
2023/07/10 05:24:10;;;;;;;58.00;32.05;;;19.20;95.20;;;;;;5052055;28;20200;-89
2023/07/10 05:26:35;;;;;;;54.90;35.30;;;19.20;95.20;;;;;;5051944;28;20180;-89
2023/07/10 05:29:01;;;;;;;52.60;35.85;;;19.30;95.30;;;;;;5052999;28;20219;-89
2023/07/10 05:31:27;;;;;;;62.45;34.60;;;19.30;95.30;;;;;;5051682;28;20176;-90
2023/07/10 05:33:52;;;;;;;50.20;32.38;;;19.30;95.30;;;;;;5052944;28;20192;-89
2023/07/10 05:36:18;;;;;;;53.70;31.02;;;19.30;95.30;;;;;;5054375;28;20199;-90
2023/07/10 05:38:48;;;;;;;42.25;29.60;;;19.40;95.40;;;;;;5055943;28;20179;-90
2023/07/10 05:41:17;;;;;;;41.05;29.23;;;19.30;95.30;;;;;;5057101;28;20168;-90
2023/07/10 05:43:43;;;;;;;44.55;31.70;;;19.20;95.30;;;;;;5055720;28;20199;-90
2023/07/10 05:46:11;;;;;;;43.65;32.47;;;19.20;95.30;;;;;;5056977;28;20192;-90
2023/07/10 05:48:37;;;;;;;44.65;31.58;;;19.20;95.20;;;;;;5055397;28;20196;-90
2023/07/10 05:51:03;;;;;;;41.95;30.40;;;19.10;95.30;;;;;;5056827;28;20180;-90
2023/07/10 05:53:29;;;;;;;38.55;28.15;;;19.10;95.40;;;;;;5056464;28;20733;-89
2023/07/10 05:55:56;;;;;;;42.38;30.90;;;19.00;95.30;;;;;;5056853;28;20152;-90
2023/07/10 05:58:24;;;;;;;38.75;30.58;;;19.00;95.40;;;;;;5056603;28;20267;-90
2023/07/10 06:00:53;;;;;;;43.78;30.85;;;19.00;95.40;;;;;;5056678;28;20180;-89
2023/07/10 06:03:18;;;;;;;38.70;30.85;;;19.00;95.40;;;;;;5055403;28;20196;-89
2023/07/10 06:05:53;;;;;;;39.67;30.88;;;19.00;95.50;;;;;;5056114;28;20180;-89
2023/07/10 06:08:19;;;;;;;43.80;30.17;;;19.00;95.50;;;;;;5054940;28;20191;-89
2023/07/10 06:10:45;;;;;;;44.28;31.83;;;19.00;95.50;;;;;;5055701;28;20576;-89
2023/07/10 06:13:11;;;;;;;43.88;29.85;;;19.00;95.60;;;;;;5054719;28;20207;-89
2023/07/10 06:15:40;;;;;;;46.88;32.28;;;19.00;95.60;;;;;;5055437;28;20168;-90
2023/07/10 06:18:05;;;;;;;45.97;32.13;;;19.00;95.60;;;;;;5055963;28;20168;-90
2023/07/10 06:20:31;;;;;;;45.67;31.85;;;19.10;95.60;;;;;;5055112;28;20195;-92
2023/07/10 06:22:56;;;;;;;41.72;30.52;;;19.10;95.50;;;;;;5056644;28;20683;-91
2023/07/10 06:25:22;;;;;;;43.10;31.23;;;19.20;95.60;;;;;;5056200;28;20640;-90
2023/07/10 06:27:47;;;;;;;38.90;30.00;;;19.20;95.50;;;;;;5054646;28;20179;-90
2023/07/10 06:30:13;;;;;;;36.38;29.35;;;19.10;95.50;;;;;;5055818;28;20701;-90
2023/07/10 06:32:40;;;;;;;32.75;27.15;;;19.10;95.50;;;;;;5055804;28;20671;-89
2023/07/10 06:35:05;;;;;;;30.25;26.90;;;19.20;95.60;;;;;;5055652;28;20164;-89
2023/07/10 06:37:31;;;;;;;32.35;26.38;;;19.20;95.60;;;;;;5055915;28;20176;-89
2023/07/10 06:40:10;;;;;;;33.85;27.42;;;19.30;95.50;;;;;;5054861;28;20615;-89
2023/07/10 06:42:36;;;;;;;28.25;24.75;;;19.20;95.50;;;;;;5054476;28;20168;-87
2023/07/10 06:45:03;;;;;;;32.70;25.98;;;19.30;95.60;;;;;;5055368;28;20524;-88
2023/07/10 06:47:31;;;;;;;31.65;25.80;;;19.40;95.60;;;;;;5053968;28;20171;-87
2023/07/10 06:49:57;;;;;;;34.40;26.25;;;19.40;95.70;;;;;;5055235;28;20199;-88
2023/07/10 06:52:22;;;;;;;32.95;25.98;;;19.40;95.70;;;;;;5055107;28;20171;-87
2023/07/10 06:54:48;;;;;;;28.58;24.40;;;19.40;95.70;;;;;;5054804;28;20261;-87
2023/07/10 06:57:14;;;;;;;32.53;23.42;;;19.40;95.60;;;;;;5055011;28;20176;-87
2023/07/10 06:59:39;;;;;;;34.65;27.27;;;19.40;95.60;;;;;;5053865;28;20259;-86
2023/07/10 07:02:05;;;;;;;32.40;25.45;;;19.40;95.70;;;;;;5053757;28;20184;-86
2023/07/10 07:04:31;;;;;;;34.15;26.38;;;19.50;95.60;;;;;;5054568;28;20191;-85
2023/07/10 07:06:57;;;;;;;31.42;27.08;;;19.50;95.70;;;;;;5054744;28;20183;-85
2023/07/10 07:09:22;;;;;;;38.30;28.20;;;19.70;95.80;;;;;;5054711;28;20249;-87
2023/07/10 07:11:48;;;;;;;39.10;26.63;;;19.70;95.70;;;;;;5054723;28;20176;-86
2023/07/10 07:14:13;;;;;;;37.55;26.77;;;19.60;95.50;;;;;;5053428;28;20192;-87
2023/07/10 07:16:39;;;;;;;36.17;25.83;;;19.70;95.70;;;;;;5055059;28;20172;-88
2023/07/10 07:19:04;;;;;;;31.38;25.60;;;19.60;95.60;;;;;;5053664;28;20222;-88
2023/07/10 07:21:30;;;;;;;33.28;25.23;;;19.70;95.60;;;;;;5053628;28;20176;-88
2023/07/10 07:23:55;;;;;;;35.08;25.38;;;19.70;95.50;;;;;;5053398;28;20303;-88
2023/07/10 07:26:24;;;;;;;35.38;25.95;;;19.70;95.50;;;;;;5053115;28;20211;-85
2023/07/10 07:28:49;;;;;;;36.53;24.63;;;19.80;95.50;;;;;;5054177;28;20282;-86
2023/07/10 07:31:15;;;;;;;36.08;24.90;;;19.80;95.40;;;;;;5054212;28;20263;-86
2023/07/10 07:33:40;;;;;;;29.50;23.75;;;19.90;95.40;;;;;;5054359;28;20219;-86
2023/07/10 07:36:06;;;;;;;31.40;21.90;;;19.90;95.20;;;;;;5052973;28;20176;-86
2023/07/10 07:38:32;;;;;;;38.92;22.92;;;19.70;94.90;;;;;;5054416;28;20183;-85
2023/07/10 07:40:58;;;;;;;39.00;22.45;;;19.70;95.10;;;;;;5052837;28;20179;-86
2023/07/10 07:43:24;;;;;;;40.95;22.67;;;19.80;95.10;;;;;;5054151;28;20191;-86
2023/07/10 07:45:54;;;;;;;32.67;21.55;;;19.90;95.10;;;;;;5054172;28;20179;-86
2023/07/10 07:48:21;;;;;;;25.40;19.02;;;19.80;95.00;;;;;;5053856;28;20301;-86
2023/07/10 07:50:57;;;;;;;28.98;18.35;;;19.70;94.80;;;;;;5052971;28;20253;-86
2023/07/10 07:53:23;;;;;;;26.58;17.33;;;19.70;94.90;;;;;;5053876;28;20198;-88
2023/07/10 07:55:49;;;;;;;23.73;15.98;;;19.60;94.50;;;;;;5053046;28;20239;-87
2023/07/10 07:58:14;;;;;;;25.60;16.27;;;19.60;94.40;;;;;;5053573;28;20168;-87
2023/07/10 08:00:40;;;;;;;28.63;16.73;;;19.50;94.50;;;;;;5054251;28;20544;-88
2023/07/10 08:03:11;;;;;;;24.08;16.92;;;19.60;94.40;;;;;;5054012;28;20241;-88
2023/07/10 08:05:37;;;;;;;19.58;14.48;;;19.60;94.50;;;;;;5054165;28;20160;-88
2023/07/10 08:08:09;;;;;;;28.00;14.70;;;19.60;94.40;;;;;;5053748;28;20225;-87
2023/07/10 08:10:47;;;;;;;23.13;13.70;;;19.80;94.40;;;;;;5053837;28;20234;-87
2023/07/10 08:13:14;;;;;;;20.42;13.75;;;19.90;94.30;;;;;;5052709;28;20200;-89
2023/07/10 08:15:40;;;;;;;20.48;12.77;;;20.00;94.40;;;;;;5053785;28;20168;-89
2023/07/10 08:18:06;;;;;;;19.42;13.98;;;20.00;94.30;;;;;;5052622;28;20176;-89
2023/07/10 08:20:32;;;;;;;22.95;13.43;;;20.20;94.40;;;;;;5052636;28;20267;-88
2023/07/10 08:22:59;;;;;;;19.70;11.93;;;20.50;94.20;;;;;;5052449;28;20733;-89
2023/07/10 08:25:24;;;;;;;17.58;12.30;;;20.60;94.00;;;;;;5052642;28;20183;-88
2023/07/10 08:27:50;;;;;;;17.48;10.27;;;20.40;93.60;;;;;;5052663;28;20171;-88
2023/07/10 08:30:16;;;;;;;14.80;10.63;;;20.50;93.10;;;;;;5052519;28;20199;-87
2023/07/10 08:32:41;;;;;;;19.90;12.68;;;20.50;92.90;;;;;;5053311;28;20172;-86
2023/07/10 08:35:07;;;;;;;20.58;12.05;;;20.50;92.20;;;;;;5052130;28;20659;-86
2023/07/10 08:37:37;;;;;;;14.55;10.70;;;20.50;92.00;;;;;;5052122;28;20562;-87
2023/07/10 08:40:12;;;;;;;20.75;10.23;;;20.70;91.90;;;;;;5053164;28;20168;-87
2023/07/10 08:42:38;;;;;;;17.05;10.68;;;21.00;91.90;;;;;;5052167;28;20168;-86
2023/07/10 08:45:12;;;;;;;20.92;10.30;;;20.90;91.30;;;;;;5053154;28;20176;-87
2023/07/10 08:47:43;;;;;;;21.63;11.93;;;21.10;91.00;;;;;;5053233;28;20580;-87
2023/07/10 08:50:22;;;;;;;17.73;9.80;;;21.00;90.70;;;;;;5052007;28;20192;-88
2023/07/10 08:53:22;;;;;;;16.08;9.70;;;21.00;90.80;;;;;;5053191;28;20158;-88
2023/07/10 08:56:21;;;;;;;21.42;10.25;;;21.00;90.50;;;;;;5048808;28;20629;-87
2023/07/10 08:58:47;;;;;;;15.38;9.48;;;20.90;89.80;;;;;;5051898;28;20651;-88
2023/07/10 09:01:29;;;;;;;11.75;9.35;;;21.20;90.50;;;;;;5052982;28;20184;-89
2023/07/10 09:03:58;;;;;;;10.32;9.27;;;21.10;90.10;;;;;;5052492;28;20203;-88
2023/07/10 09:06:39;;;;;;;12.95;9.15;;;21.20;89.40;;;;;;5052500;28;20184;-86
2023/07/10 09:09:29;;;;;;;12.40;10.52;;;21.30;89.00;;;;;;5054343;28;20192;-88
2023/07/10 09:11:58;;;;;;;15.57;9.80;;;21.50;88.50;;;;;;5057417;28;20171;-87
2023/07/10 09:14:53;;;;;;;13.65;10.18;;;21.60;87.70;;;;;;5057645;28;20253;-88
2023/07/10 09:17:44;;;;;;;11.65;9.70;;;21.50;87.50;;;;;;5055187;28;20191;-89
2023/07/10 09:20:11;;;;;;;11.07;9.30;;;21.70;87.70;;;;;;5050928;28;20213;-88
2023/07/10 09:22:41;;;;;;;12.52;10.32;;;21.80;87.80;;;;;;5056529;28;20168;-86
2023/07/10 09:25:14;;;;;;;11.73;10.02;;;21.80;87.20;;;;;;5056553;28;20164;-87
2023/07/10 09:27:44;;;;;;;14.45;11.07;;;21.70;86.20;;;;;;5057413;28;20659;-88
2023/07/10 09:30:30;;;;;;;11.32;10.27;;;21.70;86.10;;;;;;5055931;28;20208;-88
2023/07/10 09:33:08;;;;;;;13.77;10.93;;;21.80;86.30;;;;;;5048393;28;20188;-88
2023/07/10 09:35:39;;;;;;;11.05;9.93;;;22.10;86.40;;;;;;5055883;28;20263;-89
2023/07/10 09:38:05;;;;;;;11.60;9.60;;;22.20;85.90;;;;;;5055680;28;20168;-88
2023/07/10 09:40:46;;;;;;;10.73;9.82;;;22.30;85.80;;;;;;5055688;28;20222;-88
2023/07/10 09:43:17;;;;;;;12.68;10.30;;;22.50;85.30;;;;;;5055349;28;20794;-88
2023/07/10 09:45:48;;;;;;;10.93;9.82;;;22.80;85.00;;;;;;5056707;28;20161;-88
2023/07/10 09:48:31;;;;;;;11.20;10.20;;;23.00;83.60;;;;;;5056491;28;20190;-87
2023/07/10 09:51:01;;;;;;;11.05;10.15;;;23.00;83.80;;;;;;5055939;28;20167;-88
2023/07/10 09:53:30;;;;;;;15.80;11.48;;;23.20;82.40;;;;;;5056608;28;20192;-88
2023/07/10 09:55:56;;;;;;;14.65;13.23;;;22.90;82.00;;;;;;5056009;28;20331;-87
2023/07/10 09:58:21;;;;;;;13.32;12.10;;;23.00;81.30;;;;;;5056917;28;20223;-87
2023/07/10 10:00:48;;;;;;;14.60;13.20;;;22.80;81.50;;;;;;5057099;28;20171;-89
2023/07/10 10:03:31;;;;;;;14.25;13.00;;;22.30;80.70;;;;;;5055023;28;20258;-85
2023/07/10 10:05:58;;;;;;;17.33;14.32;;;22.20;82.30;;;;;;5055949;28;20167;-87
2023/07/10 10:08:29;;;;;;;14.50;13.02;;;22.00;80.10;;;;;;5056777;28;20200;-87
2023/07/10 10:11:04;;;;;;;12.90;11.73;;;22.10;82.30;;;;;;5055035;28;20176;-87
2023/07/10 10:13:34;;;;;;;13.55;11.70;;;22.40;82.30;;;;;;5054555;28;20191;-87
2023/07/10 10:16:08;;;;;;;13.05;11.85;;;22.40;81.20;;;;;;5055090;28;20263;-87
2023/07/10 10:18:53;;;;;;;13.40;12.40;;;22.50;81.10;;;;;;5056170;28;20155;-87
2023/07/10 10:21:20;;;;;;;15.07;12.00;;;22.50;79.20;;;;;;5055541;28;20152;-87
2023/07/10 10:23:51;;;;;;;12.95;11.65;;;22.20;80.70;;;;;;5054659;28;20195;-87
2023/07/10 10:26:50;;;;;;;12.93;11.70;;;22.20;79.10;;;;;;5054639;28;20179;-87
2023/07/10 10:29:43;;;;;;;13.18;11.23;;;21.80;80.00;;;;;;5050293;28;20203;-87
2023/07/10 10:32:19;;;;;;;11.20;10.30;;;21.90;80.30;;;;;;5055451;28;20176;-87
2023/07/10 10:35:22;;;;;;;11.98;10.65;;;22.10;81.20;;;;;;5054704;28;20282;-87
2023/07/10 10:38:20;;;;;;;11.65;10.45;;;22.20;80.30;;;;;;5054572;28;20194;-87
2023/07/10 10:41:12;;;;;;;11.18;10.07;;;22.80;80.10;;;;;;5055617;28;20649;-87
2023/07/10 10:43:48;;;;;;;12.32;11.13;;;23.30;78.00;;;;;;5055529;28;20199;-89
2023/07/10 10:46:25;;;;;;;12.10;11.00;;;23.50;77.30;;;;;;5054343;28;20661;-87
2023/07/10 10:48:55;;;;;;;13.32;12.23;;;23.60;78.10;;;;;;5055262;28;20187;-87
2023/07/10 10:51:27;;;;;;;14.75;13.52;;;23.30;75.90;;;;;;5055606;28;20149;-87
2023/07/10 10:54:18;;;;;;;12.98;11.77;;;23.50;74.40;;;;;;5053733;28;20208;-87
2023/07/10 10:57:05;;;;;;;15.13;13.57;;;23.70;76.00;;;;;;5055913;28;20152;-87
2023/07/10 10:59:45;;;;;;;14.82;13.48;;;23.70;77.10;;;;;;5055414;28;20164;-88
2023/07/10 11:02:32;;;;;;;13.23;11.85;;;23.30;76.80;;;;;;5055290;28;20164;-89
2023/07/10 11:05:19;;;;;;;14.95;13.55;;;23.60;77.10;;;;;;5054052;28;20199;-87
2023/07/10 11:08:39;;;;;;;23.45;15.57;;;23.80;74.30;;;;;;5055175;28;20182;-87
2023/07/10 11:11:13;;;;;;;15.73;14.15;;;23.80;73.70;;;;;;5054486;28;20191;-87
2023/07/10 11:14:23;;;;;;;15.18;13.65;;;23.50;73.40;;;;;;5053671;28;20385;-87
2023/07/10 11:20:15;;;;;;;15.15;13.60;;;24.10;75.20;;;;;;5008923;28;20669;-87
2023/07/10 11:23:02;;;;;;;16.92;15.43;;;24.00;74.00;;;;;;5048511;28;20188;-86
2023/07/10 11:25:38;;;;;;;16.17;14.52;;;23.90;71.40;;;;;;5055330;28;20162;-87
2023/07/10 11:28:25;;;;;;;16.42;14.73;;;24.00;73.10;;;;;;5053508;28;20187;-87
2023/07/10 11:31:22;;;;;;;15.95;14.68;;;24.40;72.30;;;;;;5053959;28;20171;-87
2023/07/10 11:33:59;;;;;;;16.35;14.90;;;24.20;68.40;;;;;;5053240;28;20679;-87
2023/07/10 11:36:24;;;;;;;15.45;14.25;;;23.90;68.30;;;;;;5054894;28;20168;-87
2023/07/10 11:39:09;;;;;;;15.75;14.32;;;24.10;70.90;;;;;;5053982;28;20550;-87
2023/07/10 11:41:38;;;;;;;18.50;17.05;;;24.40;66.90;;;;;;5054742;28;20179;-87
2023/07/10 11:44:28;;;;;;;15.77;14.68;;;24.50;66.50;;;;;;5054342;28;20229;-87
2023/07/10 11:46:57;;;;;;;17.80;16.10;;;24.50;68.10;;;;;;5054030;28;20183;-87
2023/07/10 11:49:44;;;;;;;17.75;16.42;;;24.30;68.00;;;;;;5053868;28;20207;-87
2023/07/10 11:52:24;;;;;;;17.23;15.68;;;24.00;64.30;;;;;;5053554;28;20168;-87
2023/07/10 11:54:50;;;;;;;17.13;15.63;;;24.20;66.40;;;;;;5053045;28;20748;-85
2023/07/10 11:57:20;;;;;;;17.50;16.00;;;24.00;64.60;;;;;;5053347;28;20172;-87
2023/07/10 11:59:52;;;;;;;15.40;14.23;;;23.80;66.10;;;;;;5054210;28;20256;-87
2023/07/10 12:02:55;;;;;;;15.60;14.35;;;24.00;67.60;;;;;;5054280;28;20629;-87
2023/07/10 12:05:36;;;;;;;16.02;14.50;;;24.20;65.30;;;;;;5016158;28;20726;-87
2023/07/10 12:08:13;;;;;;;15.60;14.40;;;24.50;65.80;;;;;;5052487;28;20184;-87
2023/07/10 12:10:50;;;;;;;17.52;16.08;;;24.80;65.30;;;;;;5053065;28;20175;-87
2023/07/10 12:13:21;;;;;;;17.88;16.50;;;24.90;61.60;;;;;;5053119;28;20603;-87
2023/07/10 12:15:48;;;;;;;16.33;15.00;;;24.70;61.50;;;;;;5053916;28;20152;-87
2023/07/10 12:18:24;;;;;;;16.27;15.05;;;24.60;61.60;;;;;;5054668;28;20172;-87
2023/07/10 12:20:51;;;;;;;15.30;14.20;;;24.20;59.20;;;;;;5052304;28;20546;-85
2023/07/10 12:23:17;;;;;;;17.15;15.90;;;24.40;62.00;;;;;;5053623;28;20188;-86
2023/07/10 12:25:51;;;;;;;16.70;15.23;;;24.70;59.70;;;;;;5053003;28;20369;-87
2023/07/10 12:28:21;;;;;;;16.10;14.95;;;25.00;58.20;;;;;;5053525;28;20214;-87
2023/07/10 12:30:49;;;;;;;16.48;15.20;;;24.90;59.60;;;;;;5054378;28;20607;-88
2023/07/10 12:33:33;;;;;;;15.93;14.82;;;24.70;56.40;;;;;;5053166;28;20666;-87
2023/07/10 12:36:04;;;;;;;16.45;15.20;;;25.00;54.80;;;;;;5054823;28;20176;-87
2023/07/10 12:38:31;;;;;;;15.07;14.05;;;25.10;58.70;;;;;;5053339;28;20535;-87
2023/07/10 12:40:57;;;;;;;14.77;13.50;;;25.10;54.70;;;;;;5054831;28;20218;-88
2023/07/10 12:43:25;;;;;;;14.95;13.80;;;25.00;54.30;;;;;;5053027;28;20598;-88
2023/07/10 12:46:02;;;;;;;17.92;14.07;;;24.80;54.20;;;;;;5052985;28;20176;-87
2023/07/10 12:48:31;;;;;;;14.98;13.68;;;25.10;55.80;;;;;;5053171;28;20700;-87